sensor_id;sensor_type;location;lat;lon;timestamp;P1;durP1;ratioP1;P2;durP2;ratioP2
1799;SDS011;919;48.274;12.292;2023-11-18T00:01:30;5.80;;;5.17;;
1799;SDS011;919;48.274;12.292;2023-11-18T00:03:59;7.17;;;4.73;;
1799;SDS011;919;48.274;12.292;2023-11-18T00:06:26;6.00;;;5.40;;
1799;SDS011;919;48.274;12.292;2023-11-18T00:08:53;6.53;;;5.10;;
1799;SDS011;919;48.274;12.292;2023-11-18T00:11:20;6.13;;;5.13;;
1799;SDS011;919;48.274;12.292;2023-11-18T00:13:46;8.70;;;6.03;;
1799;SDS011;919;48.274;12.292;2023-11-18T00:16:13;7.70;;;5.27;;
1799;SDS011;919;48.274;12.292;2023-11-18T00:18:41;5.30;;;4.70;;
1799;SDS011;919;48.274;12.292;2023-11-18T00:21:10;6.57;;;5.50;;
1799;SDS011;919;48.274;12.292;2023-11-18T00:23:37;6.33;;;5.27;;
1799;SDS011;919;48.274;12.292;2023-11-18T00:26:04;5.13;;;4.60;;
1799;SDS011;919;48.274;12.292;2023-11-18T00:28:32;9.40;;;5.17;;
1799;SDS011;919;48.274;12.292;2023-11-18T00:30:58;8.60;;;4.70;;
1799;SDS011;919;48.274;12.292;2023-11-18T00:33:25;5.70;;;5.10;;
1799;SDS011;919;48.274;12.292;2023-11-18T00:35:52;7.80;;;5.80;;
1799;SDS011;919;48.274;12.292;2023-11-18T00:38:20;6.53;;;5.03;;
1799;SDS011;919;48.274;12.292;2023-11-18T00:40:47;5.30;;;4.50;;
1799;SDS011;919;48.274;12.292;2023-11-18T00:43:13;5.43;;;4.90;;
1799;SDS011;919;48.274;12.292;2023-11-18T00:45:40;6.63;;;5.93;;
1799;SDS011;919;48.274;12.292;2023-11-18T00:48:08;7.03;;;5.80;;
1799;SDS011;919;48.274;12.292;2023-11-18T00:50:35;6.60;;;5.60;;
1799;SDS011;919;48.274;12.292;2023-11-18T00:53:02;7.93;;;5.37;;
1799;SDS011;919;48.274;12.292;2023-11-18T00:55:31;7.60;;;5.43;;
1799;SDS011;919;48.274;12.292;2023-11-18T00:57:58;6.73;;;5.43;;
1799;SDS011;919;48.274;12.292;2023-11-18T01:00:25;6.37;;;5.10;;
1799;SDS011;919;48.274;12.292;2023-11-18T01:02:52;5.80;;;5.00;;
1799;SDS011;919;48.274;12.292;2023-11-18T01:05:19;5.23;;;4.73;;
1799;SDS011;919;48.274;12.292;2023-11-18T01:07:46;7.43;;;5.70;;
1799;SDS011;919;48.274;12.292;2023-11-18T01:10:13;6.87;;;5.50;;
1799;SDS011;919;48.274;12.292;2023-11-18T01:12:41;6.80;;;5.33;;
1799;SDS011;919;48.274;12.292;2023-11-18T01:15:10;6.10;;;5.07;;
1799;SDS011;919;48.274;12.292;2023-11-18T01:17:37;6.10;;;4.60;;
1799;SDS011;919;48.274;12.292;2023-11-18T01:20:05;6.43;;;5.30;;
1799;SDS011;919;48.274;12.292;2023-11-18T01:22:35;8.50;;;4.80;;
1799;SDS011;919;48.274;12.292;2023-11-18T01:25:02;7.90;;;5.17;;
1799;SDS011;919;48.274;12.292;2023-11-18T01:27:30;5.33;;;4.83;;
1799;SDS011;919;48.274;12.292;2023-11-18T01:30:00;6.67;;;5.60;;
1799;SDS011;919;48.274;12.292;2023-11-18T01:32:27;10.53;;;6.03;;
1799;SDS011;919;48.274;12.292;2023-11-18T01:34:54;7.17;;;5.23;;
1799;SDS011;919;48.274;12.292;2023-11-18T01:37:22;6.63;;;5.50;;
1799;SDS011;919;48.274;12.292;2023-11-18T01:39:49;7.40;;;5.90;;
1799;SDS011;919;48.274;12.292;2023-11-18T01:42:16;6.37;;;4.90;;
1799;SDS011;919;48.274;12.292;2023-11-18T01:44:43;6.73;;;5.47;;
1799;SDS011;919;48.274;12.292;2023-11-18T01:47:11;6.30;;;5.33;;
1799;SDS011;919;48.274;12.292;2023-11-18T01:49:37;11.30;;;5.43;;
1799;SDS011;919;48.274;12.292;2023-11-18T01:52:06;5.10;;;4.60;;
1799;SDS011;919;48.274;12.292;2023-11-18T01:54:34;4.97;;;4.10;;
1799;SDS011;919;48.274;12.292;2023-11-18T01:57:03;5.80;;;5.13;;
1799;SDS011;919;48.274;12.292;2023-11-18T01:59:31;6.47;;;5.30;;
1799;SDS011;919;48.274;12.292;2023-11-18T02:01:58;6.20;;;5.07;;
1799;SDS011;919;48.274;12.292;2023-11-18T02:04:28;5.40;;;4.37;;
1799;SDS011;919;48.274;12.292;2023-11-18T02:06:55;5.40;;;4.23;;
1799;SDS011;919;48.274;12.292;2023-11-18T02:09:23;5.80;;;4.70;;
1799;SDS011;919;48.274;12.292;2023-11-18T02:11:54;6.73;;;5.03;;
1799;SDS011;919;48.274;12.292;2023-11-18T02:14:26;6.50;;;5.40;;
1799;SDS011;919;48.274;12.292;2023-11-18T02:16:55;6.50;;;4.97;;
1799;SDS011;919;48.274;12.292;2023-11-18T02:19:29;4.80;;;4.30;;
1799;SDS011;919;48.274;12.292;2023-11-18T02:21:57;5.80;;;4.83;;
1799;SDS011;919;48.274;12.292;2023-11-18T02:24:26;5.73;;;5.03;;
1799;SDS011;919;48.274;12.292;2023-11-18T02:26:58;6.27;;;5.03;;
1799;SDS011;919;48.274;12.292;2023-11-18T02:29:25;6.97;;;5.27;;
1799;SDS011;919;48.274;12.292;2023-11-18T02:31:57;5.03;;;4.53;;
1799;SDS011;919;48.274;12.292;2023-11-18T02:34:28;6.80;;;5.07;;
1799;SDS011;919;48.274;12.292;2023-11-18T02:36:59;4.77;;;3.97;;
1799;SDS011;919;48.274;12.292;2023-11-18T02:39:32;5.13;;;4.27;;
1799;SDS011;919;48.274;12.292;2023-11-18T02:42:05;6.37;;;4.97;;
1799;SDS011;919;48.274;12.292;2023-11-18T02:44:34;4.80;;;4.30;;
1799;SDS011;919;48.274;12.292;2023-11-18T02:47:02;6.77;;;5.10;;
1799;SDS011;919;48.274;12.292;2023-11-18T02:49:30;5.20;;;4.73;;
1799;SDS011;919;48.274;12.292;2023-11-18T02:51:57;7.20;;;5.33;;
1799;SDS011;919;48.274;12.292;2023-11-18T02:54:24;5.40;;;4.90;;
1799;SDS011;919;48.274;12.292;2023-11-18T02:56:51;5.47;;;4.97;;
1799;SDS011;919;48.274;12.292;2023-11-18T02:59:19;5.03;;;4.50;;
1799;SDS011;919;48.274;12.292;2023-11-18T03:01:46;7.27;;;4.17;;
1799;SDS011;919;48.274;12.292;2023-11-18T03:04:13;5.17;;;4.37;;
1799;SDS011;919;48.274;12.292;2023-11-18T03:06:40;5.17;;;4.03;;
1799;SDS011;919;48.274;12.292;2023-11-18T03:09:06;6.43;;;5.03;;
1799;SDS011;919;48.274;12.292;2023-11-18T03:11:32;6.07;;;4.80;;
1799;SDS011;919;48.274;12.292;2023-11-18T03:13:59;5.93;;;4.70;;
1799;SDS011;919;48.274;12.292;2023-11-18T03:16:28;4.37;;;3.97;;
1799;SDS011;919;48.274;12.292;2023-11-18T03:18:54;4.30;;;3.90;;
1799;SDS011;919;48.274;12.292;2023-11-18T03:21:22;4.50;;;4.10;;
1799;SDS011;919;48.274;12.292;2023-11-18T03:23:51;4.57;;;4.13;;
1799;SDS011;919;48.274;12.292;2023-11-18T03:26:19;4.77;;;4.27;;
1799;SDS011;919;48.274;12.292;2023-11-18T03:28:46;4.20;;;3.80;;
1799;SDS011;919;48.274;12.292;2023-11-18T03:31:12;4.37;;;3.93;;
1799;SDS011;919;48.274;12.292;2023-11-18T03:33:42;4.37;;;3.40;;
1799;SDS011;919;48.274;12.292;2023-11-18T03:36:09;4.73;;;3.33;;
1799;SDS011;919;48.274;12.292;2023-11-18T03:38:37;4.77;;;4.33;;
1799;SDS011;919;48.274;12.292;2023-11-18T03:41:04;4.40;;;4.00;;
1799;SDS011;919;48.274;12.292;2023-11-18T03:43:33;6.33;;;4.10;;
1799;SDS011;919;48.274;12.292;2023-11-18T03:46:00;3.13;;;2.90;;
1799;SDS011;919;48.274;12.292;2023-11-18T03:48:26;3.03;;;2.73;;
1799;SDS011;919;48.274;12.292;2023-11-18T03:50:54;4.67;;;3.80;;
1799;SDS011;919;48.274;12.292;2023-11-18T03:53:21;3.13;;;2.90;;
1799;SDS011;919;48.274;12.292;2023-11-18T03:55:48;2.87;;;2.60;;
1799;SDS011;919;48.274;12.292;2023-11-18T03:58:16;2.73;;;2.53;;
1799;SDS011;919;48.274;12.292;2023-11-18T04:00:43;2.57;;;2.37;;
1799;SDS011;919;48.274;12.292;2023-11-18T04:03:10;3.50;;;2.90;;
1799;SDS011;919;48.274;12.292;2023-11-18T04:05:37;3.43;;;3.13;;
1799;SDS011;919;48.274;12.292;2023-11-18T04:08:05;3.10;;;2.83;;
1799;SDS011;919;48.274;12.292;2023-11-18T04:10:32;3.57;;;3.27;;
1799;SDS011;919;48.274;12.292;2023-11-18T04:12:59;4.50;;;3.93;;
1799;SDS011;919;48.274;12.292;2023-11-18T04:15:26;5.00;;;4.50;;
1799;SDS011;919;48.274;12.292;2023-11-18T04:17:53;5.27;;;4.77;;
1799;SDS011;919;48.274;12.292;2023-11-18T04:20:20;4.63;;;4.03;;
1799;SDS011;919;48.274;12.292;2023-11-18T04:22:46;6.17;;;5.17;;
1799;SDS011;919;48.274;12.292;2023-11-18T04:25:15;9.23;;;5.60;;
1799;SDS011;919;48.274;12.292;2023-11-18T04:27:41;5.23;;;4.40;;
1799;SDS011;919;48.274;12.292;2023-11-18T04:30:08;5.03;;;4.53;;
1799;SDS011;919;48.274;12.292;2023-11-18T04:32:37;5.47;;;4.97;;
1799;SDS011;919;48.274;12.292;2023-11-18T04:35:07;6.03;;;4.17;;
1799;SDS011;919;48.274;12.292;2023-11-18T04:37:37;5.13;;;3.90;;
1799;SDS011;919;48.274;12.292;2023-11-18T04:40:08;4.50;;;4.10;;
1799;SDS011;919;48.274;12.292;2023-11-18T04:42:37;4.47;;;3.77;;
1799;SDS011;919;48.274;12.292;2023-11-18T04:45:04;4.80;;;4.30;;
1799;SDS011;919;48.274;12.292;2023-11-18T04:47:34;6.90;;;4.33;;
1799;SDS011;919;48.274;12.292;2023-11-18T04:50:01;5.40;;;4.57;;
1799;SDS011;919;48.274;12.292;2023-11-18T04:52:28;5.50;;;5.00;;
1799;SDS011;919;48.274;12.292;2023-11-18T04:54:57;4.20;;;3.83;;
1799;SDS011;919;48.274;12.292;2023-11-18T04:57:26;4.80;;;4.23;;
1799;SDS011;919;48.274;12.292;2023-11-18T04:59:54;5.40;;;4.87;;
1799;SDS011;919;48.274;12.292;2023-11-18T05:02:21;4.93;;;4.37;;
1799;SDS011;919;48.274;12.292;2023-11-18T05:04:48;5.13;;;4.73;;
1799;SDS011;919;48.274;12.292;2023-11-18T05:07:15;4.37;;;3.97;;
1799;SDS011;919;48.274;12.292;2023-11-18T05:09:42;7.20;;;5.03;;
1799;SDS011;919;48.274;12.292;2023-11-18T05:12:09;6.50;;;4.90;;
1799;SDS011;919;48.274;12.292;2023-11-18T05:14:35;5.20;;;4.60;;
1799;SDS011;919;48.274;12.292;2023-11-18T05:17:04;4.87;;;4.40;;
1799;SDS011;919;48.274;12.292;2023-11-18T05:19:31;5.30;;;4.80;;
1799;SDS011;919;48.274;12.292;2023-11-18T05:21:58;4.90;;;4.40;;
1799;SDS011;919;48.274;12.292;2023-11-18T05:24:25;6.40;;;4.70;;
1799;SDS011;919;48.274;12.292;2023-11-18T05:26:52;3.97;;;3.60;;
1799;SDS011;919;48.274;12.292;2023-11-18T05:29:19;6.10;;;4.97;;
1799;SDS011;919;48.274;12.292;2023-11-18T05:31:46;5.40;;;4.90;;
1799;SDS011;919;48.274;12.292;2023-11-18T05:34:14;5.00;;;4.50;;
1799;SDS011;919;48.274;12.292;2023-11-18T05:36:41;5.80;;;4.93;;
1799;SDS011;919;48.274;12.292;2023-11-18T05:39:07;5.20;;;4.70;;
1799;SDS011;919;48.274;12.292;2023-11-18T05:41:35;6.73;;;5.10;;
1799;SDS011;919;48.274;12.292;2023-11-18T05:44:05;5.43;;;5.00;;
1799;SDS011;919;48.274;12.292;2023-11-18T05:46:34;5.80;;;5.20;;
1799;SDS011;919;48.274;12.292;2023-11-18T05:49:01;5.93;;;5.33;;
1799;SDS011;919;48.274;12.292;2023-11-18T05:51:33;4.40;;;4.00;;
1799;SDS011;919;48.274;12.292;2023-11-18T05:54:00;5.63;;;5.13;;
1799;SDS011;919;48.274;12.292;2023-11-18T05:56:26;5.67;;;4.50;;
1799;SDS011;919;48.274;12.292;2023-11-18T05:58:53;5.87;;;4.80;;
1799;SDS011;919;48.274;12.292;2023-11-18T06:01:20;6.30;;;5.70;;
1799;SDS011;919;48.274;12.292;2023-11-18T06:03:47;5.13;;;4.73;;
1799;SDS011;919;48.274;12.292;2023-11-18T06:06:14;4.60;;;4.20;;
1799;SDS011;919;48.274;12.292;2023-11-18T06:08:43;6.23;;;5.63;;
1799;SDS011;919;48.274;12.292;2023-11-18T06:11:12;4.90;;;4.03;;
1799;SDS011;919;48.274;12.292;2023-11-18T06:13:40;4.73;;;3.87;;
1799;SDS011;919;48.274;12.292;2023-11-18T06:16:08;5.27;;;4.67;;
1799;SDS011;919;48.274;12.292;2023-11-18T06:18:39;5.03;;;4.53;;
1799;SDS011;919;48.274;12.292;2023-11-18T06:21:06;4.40;;;4.00;;
1799;SDS011;919;48.274;12.292;2023-11-18T06:23:33;4.83;;;4.37;;
1799;SDS011;919;48.274;12.292;2023-11-18T06:26:02;4.57;;;3.77;;
1799;SDS011;919;48.274;12.292;2023-11-18T06:28:29;4.47;;;4.07;;
1799;SDS011;919;48.274;12.292;2023-11-18T06:30:56;3.90;;;3.50;;
1799;SDS011;919;48.274;12.292;2023-11-18T06:33:23;4.60;;;4.20;;
1799;SDS011;919;48.274;12.292;2023-11-18T06:35:52;3.63;;;3.33;;
1799;SDS011;919;48.274;12.292;2023-11-18T06:38:21;5.57;;;4.70;;
1799;SDS011;919;48.274;12.292;2023-11-18T06:40:48;4.10;;;3.67;;
1799;SDS011;919;48.274;12.292;2023-11-18T06:43:18;4.00;;;3.53;;
1799;SDS011;919;48.274;12.292;2023-11-18T06:45:45;3.50;;;3.13;;
1799;SDS011;919;48.274;12.292;2023-11-18T06:48:13;3.67;;;3.03;;
1799;SDS011;919;48.274;12.292;2023-11-18T06:50:40;4.57;;;4.17;;
1799;SDS011;919;48.274;12.292;2023-11-18T06:53:09;4.83;;;4.33;;
1799;SDS011;919;48.274;12.292;2023-11-18T06:55:36;6.03;;;5.00;;
1799;SDS011;919;48.274;12.292;2023-11-18T06:58:03;5.30;;;4.60;;
1799;SDS011;919;48.274;12.292;2023-11-18T07:00:31;6.40;;;5.10;;
1799;SDS011;919;48.274;12.292;2023-11-18T07:02:58;6.67;;;5.50;;
1799;SDS011;919;48.274;12.292;2023-11-18T07:05:26;7.47;;;5.63;;
1799;SDS011;919;48.274;12.292;2023-11-18T07:07:53;6.70;;;5.50;;
1799;SDS011;919;48.274;12.292;2023-11-18T07:10:20;6.37;;;5.77;;
1799;SDS011;919;48.274;12.292;2023-11-18T07:12:47;7.60;;;5.90;;
1799;SDS011;919;48.274;12.292;2023-11-18T07:15:14;6.60;;;5.80;;
1799;SDS011;919;48.274;12.292;2023-11-18T07:17:42;6.77;;;6.07;;
1799;SDS011;919;48.274;12.292;2023-11-18T07:20:11;6.87;;;6.17;;
1799;SDS011;919;48.274;12.292;2023-11-18T07:22:39;7.83;;;6.10;;
1799;SDS011;919;48.274;12.292;2023-11-18T07:25:06;9.60;;;6.50;;
1799;SDS011;919;48.274;12.292;2023-11-18T07:27:34;9.30;;;7.20;;
1799;SDS011;919;48.274;12.292;2023-11-18T07:30:01;16.73;;;5.93;;
1799;SDS011;919;48.274;12.292;2023-11-18T07:32:31;6.00;;;5.27;;
1799;SDS011;919;48.274;12.292;2023-11-18T07:35:00;6.33;;;5.73;;
1799;SDS011;919;48.274;12.292;2023-11-18T07:37:26;8.70;;;7.10;;
1799;SDS011;919;48.274;12.292;2023-11-18T07:39:57;7.27;;;5.50;;
1799;SDS011;919;48.274;12.292;2023-11-18T07:42:25;6.10;;;5.50;;
1799;SDS011;919;48.274;12.292;2023-11-18T07:44:52;7.50;;;6.53;;
1799;SDS011;919;48.274;12.292;2023-11-18T07:47:19;7.43;;;5.97;;
1799;SDS011;919;48.274;12.292;2023-11-18T07:49:46;7.20;;;5.63;;
1799;SDS011;919;48.274;12.292;2023-11-18T07:52:14;9.07;;;6.43;;
1799;SDS011;919;48.274;12.292;2023-11-18T07:54:42;7.67;;;6.30;;
1799;SDS011;919;48.274;12.292;2023-11-18T07:57:08;6.40;;;5.10;;
1799;SDS011;919;48.274;12.292;2023-11-18T07:59:36;6.40;;;5.10;;
1799;SDS011;919;48.274;12.292;2023-11-18T08:02:03;7.50;;;5.87;;
1799;SDS011;919;48.274;12.292;2023-11-18T08:04:34;8.03;;;6.60;;
1799;SDS011;919;48.274;12.292;2023-11-18T08:07:01;5.60;;;5.07;;
1799;SDS011;919;48.274;12.292;2023-11-18T08:09:30;5.87;;;5.27;;
1799;SDS011;919;48.274;12.292;2023-11-18T08:11:57;8.40;;;6.40;;
1799;SDS011;919;48.274;12.292;2023-11-18T08:14:24;5.90;;;5.30;;
1799;SDS011;919;48.274;12.292;2023-11-18T08:16:51;6.63;;;5.70;;
1799;SDS011;919;48.274;12.292;2023-11-18T08:19:20;5.97;;;5.33;;
1799;SDS011;919;48.274;12.292;2023-11-18T08:21:48;7.00;;;5.47;;
1799;SDS011;919;48.274;12.292;2023-11-18T08:24:14;9.17;;;6.07;;
1799;SDS011;919;48.274;12.292;2023-11-18T08:26:43;8.50;;;5.97;;
1799;SDS011;919;48.274;12.292;2023-11-18T08:29:09;7.73;;;6.17;;
1799;SDS011;919;48.274;12.292;2023-11-18T08:31:38;6.93;;;6.00;;
1799;SDS011;919;48.274;12.292;2023-11-18T08:34:05;6.07;;;5.40;;
1799;SDS011;919;48.274;12.292;2023-11-18T08:36:32;7.37;;;5.90;;
1799;SDS011;919;48.274;12.292;2023-11-18T08:38:59;6.17;;;5.30;;
1799;SDS011;919;48.274;12.292;2023-11-18T08:41:25;7.63;;;5.93;;
1799;SDS011;919;48.274;12.292;2023-11-18T08:43:57;5.70;;;5.10;;
1799;SDS011;919;48.274;12.292;2023-11-18T08:46:23;6.43;;;5.10;;
1799;SDS011;919;48.274;12.292;2023-11-18T08:48:51;7.37;;;5.33;;
1799;SDS011;919;48.274;12.292;2023-11-18T08:51:20;7.03;;;5.80;;
1799;SDS011;919;48.274;12.292;2023-11-18T08:53:49;5.67;;;5.00;;
1799;SDS011;919;48.274;12.292;2023-11-18T08:56:16;6.17;;;5.27;;
1799;SDS011;919;48.274;12.292;2023-11-18T08:58:45;5.80;;;4.33;;
1799;SDS011;919;48.274;12.292;2023-11-18T09:01:15;6.00;;;4.93;;
1799;SDS011;919;48.274;12.292;2023-11-18T09:03:42;5.40;;;4.70;;
1799;SDS011;919;48.274;12.292;2023-11-18T09:06:13;6.63;;;4.87;;
1799;SDS011;919;48.274;12.292;2023-11-18T09:08:44;7.50;;;5.30;;
1799;SDS011;919;48.274;12.292;2023-11-18T09:11:17;5.57;;;5.00;;
1799;SDS011;919;48.274;12.292;2023-11-18T09:13:47;5.50;;;4.90;;
1799;SDS011;919;48.274;12.292;2023-11-18T09:16:19;5.10;;;4.60;;
1799;SDS011;919;48.274;12.292;2023-11-18T09:18:47;5.03;;;4.27;;
1799;SDS011;919;48.274;12.292;2023-11-18T09:21:16;5.00;;;4.50;;
1799;SDS011;919;48.274;12.292;2023-11-18T09:23:48;4.33;;;3.93;;
1799;SDS011;919;48.274;12.292;2023-11-18T09:26:15;6.10;;;4.73;;
1799;SDS011;919;48.274;12.292;2023-11-18T09:28:42;5.10;;;4.60;;
1799;SDS011;919;48.274;12.292;2023-11-18T09:31:09;4.80;;;3.70;;
1799;SDS011;919;48.274;12.292;2023-11-18T09:33:39;4.10;;;3.67;;
1799;SDS011;919;48.274;12.292;2023-11-18T09:36:11;3.63;;;3.30;;
1799;SDS011;919;48.274;12.292;2023-11-18T09:38:39;5.00;;;4.30;;
1799;SDS011;919;48.274;12.292;2023-11-18T09:41:07;7.70;;;4.07;;
1799;SDS011;919;48.274;12.292;2023-11-18T09:43:36;4.70;;;4.10;;
1799;SDS011;919;48.274;12.292;2023-11-18T09:46:10;4.53;;;4.10;;
1799;SDS011;919;48.274;12.292;2023-11-18T09:48:44;4.13;;;3.67;;
1799;SDS011;919;48.274;12.292;2023-11-18T09:51:14;4.10;;;3.70;;
1799;SDS011;919;48.274;12.292;2023-11-18T09:53:46;4.07;;;3.67;;
1799;SDS011;919;48.274;12.292;2023-11-18T09:56:18;4.00;;;3.60;;
1799;SDS011;919;48.274;12.292;2023-11-18T09:58:57;4.33;;;3.33;;
1799;SDS011;919;48.274;12.292;2023-11-18T10:01:32;4.47;;;3.60;;
1799;SDS011;919;48.274;12.292;2023-11-18T10:04:09;4.17;;;3.80;;
1799;SDS011;919;48.274;12.292;2023-11-18T10:06:37;3.63;;;3.23;;
1799;SDS011;919;48.274;12.292;2023-11-18T10:09:06;3.10;;;2.90;;
1799;SDS011;919;48.274;12.292;2023-11-18T10:11:42;3.37;;;2.67;;
1799;SDS011;919;48.274;12.292;2023-11-18T10:14:11;3.77;;;3.47;;
1799;SDS011;919;48.274;12.292;2023-11-18T10:16:40;2.83;;;2.60;;
1799;SDS011;919;48.274;12.292;2023-11-18T10:19:12;4.13;;;3.73;;
1799;SDS011;919;48.274;12.292;2023-11-18T10:21:39;3.30;;;3.00;;
1799;SDS011;919;48.274;12.292;2023-11-18T10:24:06;3.57;;;3.27;;
1799;SDS011;919;48.274;12.292;2023-11-18T10:26:39;3.23;;;2.90;;
1799;SDS011;919;48.274;12.292;2023-11-18T10:29:10;3.63;;;3.33;;
1799;SDS011;919;48.274;12.292;2023-11-18T10:31:38;4.73;;;3.67;;
1799;SDS011;919;48.274;12.292;2023-11-18T10:34:11;3.80;;;3.40;;
1799;SDS011;919;48.274;12.292;2023-11-18T10:36:40;3.10;;;2.80;;
1799;SDS011;919;48.274;12.292;2023-11-18T10:39:10;3.20;;;2.90;;
1799;SDS011;919;48.274;12.292;2023-11-18T10:41:42;3.97;;;3.57;;
1799;SDS011;919;48.274;12.292;2023-11-18T10:44:12;3.30;;;3.00;;
1799;SDS011;919;48.274;12.292;2023-11-18T10:46:50;3.33;;;3.03;;
1799;SDS011;919;48.274;12.292;2023-11-18T10:49:21;3.40;;;3.03;;
1799;SDS011;919;48.274;12.292;2023-11-18T10:51:47;4.80;;;3.40;;
1799;SDS011;919;48.274;12.292;2023-11-18T10:54:17;3.17;;;2.90;;
1799;SDS011;919;48.274;12.292;2023-11-18T10:56:47;3.27;;;2.80;;
1799;SDS011;919;48.274;12.292;2023-11-18T10:59:16;2.87;;;2.67;;
1799;SDS011;919;48.274;12.292;2023-11-18T11:01:43;3.10;;;2.57;;
1799;SDS011;919;48.274;12.292;2023-11-18T11:04:14;3.67;;;3.33;;
1799;SDS011;919;48.274;12.292;2023-11-18T11:06:43;3.87;;;2.90;;
1799;SDS011;919;48.274;12.292;2023-11-18T11:09:17;4.00;;;3.00;;
1799;SDS011;919;48.274;12.292;2023-11-18T11:11:46;3.37;;;3.07;;
1799;SDS011;919;48.274;12.292;2023-11-18T11:14:16;4.10;;;3.37;;
1799;SDS011;919;48.274;12.292;2023-11-18T11:16:47;3.67;;;3.37;;
1799;SDS011;919;48.274;12.292;2023-11-18T11:19:20;3.00;;;2.80;;
1799;SDS011;919;48.274;12.292;2023-11-18T11:21:58;3.00;;;2.80;;
1799;SDS011;919;48.274;12.292;2023-11-18T11:24:33;3.40;;;2.43;;
1799;SDS011;919;48.274;12.292;2023-11-18T11:27:21;3.13;;;2.77;;
1799;SDS011;919;48.274;12.292;2023-11-18T11:30:01;2.97;;;2.77;;
1799;SDS011;919;48.274;12.292;2023-11-18T11:32:35;3.10;;;2.70;;
1799;SDS011;919;48.274;12.292;2023-11-18T11:35:15;2.13;;;1.93;;
1799;SDS011;919;48.274;12.292;2023-11-18T11:37:48;2.50;;;2.30;;
1799;SDS011;919;48.274;12.292;2023-11-18T11:40:15;2.57;;;2.37;;
1799;SDS011;919;48.274;12.292;2023-11-18T11:42:47;4.20;;;2.80;;
1799;SDS011;919;48.274;12.292;2023-11-18T11:45:20;3.37;;;3.00;;
1799;SDS011;919;48.274;12.292;2023-11-18T11:47:53;2.70;;;2.50;;
1799;SDS011;919;48.274;12.292;2023-11-18T11:50:38;2.73;;;2.53;;
1799;SDS011;919;48.274;12.292;2023-11-18T11:53:22;2.67;;;2.47;;
1799;SDS011;919;48.274;12.292;2023-11-18T11:55:53;2.27;;;2.10;;
1799;SDS011;919;48.274;12.292;2023-11-18T11:58:30;2.57;;;2.37;;
1799;SDS011;919;48.274;12.292;2023-11-18T12:01:01;2.17;;;1.97;;
1799;SDS011;919;48.274;12.292;2023-11-18T12:03:43;2.17;;;2.07;;
1799;SDS011;919;48.274;12.292;2023-11-18T12:06:12;2.83;;;2.50;;
1799;SDS011;919;48.274;12.292;2023-11-18T12:08:43;2.10;;;2.00;;
1799;SDS011;919;48.274;12.292;2023-11-18T12:11:09;2.33;;;1.80;;
1799;SDS011;919;48.274;12.292;2023-11-18T12:13:40;1.80;;;1.70;;
1799;SDS011;919;48.274;12.292;2023-11-18T12:16:59;1.70;;;1.60;;
1799;SDS011;919;48.274;12.292;2023-11-18T12:19:32;1.90;;;1.50;;
1799;SDS011;919;48.274;12.292;2023-11-18T12:22:09;2.60;;;1.50;;
1799;SDS011;919;48.274;12.292;2023-11-18T12:24:44;1.97;;;1.77;;
1799;SDS011;919;48.274;12.292;2023-11-18T12:27:41;1.33;;;1.23;;
1799;SDS011;919;48.274;12.292;2023-11-18T12:33:06;1.37;;;1.30;;
1799;SDS011;919;48.274;12.292;2023-11-18T12:35:36;1.60;;;1.50;;
1799;SDS011;919;48.274;12.292;2023-11-18T12:38:20;1.70;;;1.53;;
1799;SDS011;919;48.274;12.292;2023-11-18T12:41:05;2.23;;;1.77;;
1799;SDS011;919;48.274;12.292;2023-11-18T12:43:45;1.40;;;1.30;;
1799;SDS011;919;48.274;12.292;2023-11-18T12:46:25;1.57;;;1.47;;
1799;SDS011;919;48.274;12.292;2023-11-18T12:49:14;1.97;;;1.23;;
1799;SDS011;919;48.274;12.292;2023-11-18T12:51:42;1.47;;;1.37;;
1799;SDS011;919;48.274;12.292;2023-11-18T12:54:09;0.90;;;0.90;;
1799;SDS011;919;48.274;12.292;2023-11-18T12:56:39;1.40;;;1.30;;
1799;SDS011;919;48.274;12.292;2023-11-18T12:59:09;1.47;;;1.37;;
1799;SDS011;919;48.274;12.292;2023-11-18T13:01:38;1.30;;;1.20;;
1799;SDS011;919;48.274;12.292;2023-11-18T13:04:07;1.53;;;1.23;;
1799;SDS011;919;48.274;12.292;2023-11-18T13:06:34;5.13;;;1.43;;
1799;SDS011;919;48.274;12.292;2023-11-18T13:09:03;1.73;;;1.60;;
1799;SDS011;919;48.274;12.292;2023-11-18T13:11:34;1.70;;;1.60;;
1799;SDS011;919;48.274;12.292;2023-11-18T13:14:03;1.30;;;1.23;;
1799;SDS011;919;48.274;12.292;2023-11-18T13:16:30;1.30;;;1.20;;
1799;SDS011;919;48.274;12.292;2023-11-18T13:18:56;1.33;;;1.23;;
1799;SDS011;919;48.274;12.292;2023-11-18T13:21:23;1.37;;;1.27;;
1799;SDS011;919;48.274;12.292;2023-11-18T13:23:54;1.43;;;1.33;;
1799;SDS011;919;48.274;12.292;2023-11-18T13:26:21;1.23;;;1.20;;
1799;SDS011;919;48.274;12.292;2023-11-18T13:28:49;1.27;;;1.17;;
1799;SDS011;919;48.274;12.292;2023-11-18T13:31:17;1.00;;;1.00;;
1799;SDS011;919;48.274;12.292;2023-11-18T13:33:46;0.90;;;0.90;;
1799;SDS011;919;48.274;12.292;2023-11-18T13:36:14;1.47;;;1.20;;
1799;SDS011;919;48.274;12.292;2023-11-18T13:38:41;1.90;;;1.80;;
1799;SDS011;919;48.274;12.292;2023-11-18T13:41:09;1.60;;;1.50;;
1799;SDS011;919;48.274;12.292;2023-11-18T13:43:41;1.10;;;1.10;;
1799;SDS011;919;48.274;12.292;2023-11-18T13:46:10;1.70;;;1.30;;
1799;SDS011;919;48.274;12.292;2023-11-18T13:48:39;2.30;;;1.57;;
1799;SDS011;919;48.274;12.292;2023-11-18T13:51:07;1.80;;;1.70;;
1799;SDS011;919;48.274;12.292;2023-11-18T13:53:37;1.70;;;1.50;;
1799;SDS011;919;48.274;12.292;2023-11-18T13:56:05;1.40;;;1.30;;
1799;SDS011;919;48.274;12.292;2023-11-18T13:58:34;1.70;;;1.60;;
1799;SDS011;919;48.274;12.292;2023-11-18T14:01:04;1.50;;;1.40;;
1799;SDS011;919;48.274;12.292;2023-11-18T14:03:32;1.63;;;1.53;;
1799;SDS011;919;48.274;12.292;2023-11-18T14:06:04;1.90;;;1.77;;
1799;SDS011;919;48.274;12.292;2023-11-18T14:08:35;2.00;;;1.90;;
1799;SDS011;919;48.274;12.292;2023-11-18T14:11:02;2.13;;;1.97;;
1799;SDS011;919;48.274;12.292;2023-11-18T14:13:30;1.50;;;1.40;;
1799;SDS011;919;48.274;12.292;2023-11-18T14:15:57;1.57;;;1.47;;
1799;SDS011;919;48.274;12.292;2023-11-18T14:18:24;2.00;;;1.80;;
1799;SDS011;919;48.274;12.292;2023-11-18T14:20:51;1.63;;;1.53;;
1799;SDS011;919;48.274;12.292;2023-11-18T14:23:19;1.63;;;1.53;;
1799;SDS011;919;48.274;12.292;2023-11-18T14:25:47;1.33;;;1.23;;
1799;SDS011;919;48.274;12.292;2023-11-18T14:28:14;1.40;;;1.30;;
1799;SDS011;919;48.274;12.292;2023-11-18T14:30:41;1.97;;;1.83;;
1799;SDS011;919;48.274;12.292;2023-11-18T14:33:08;1.97;;;1.70;;
1799;SDS011;919;48.274;12.292;2023-11-18T14:35:34;1.77;;;1.60;;
1799;SDS011;919;48.274;12.292;2023-11-18T14:38:01;1.80;;;1.70;;
1799;SDS011;919;48.274;12.292;2023-11-18T14:40:29;2.33;;;2.13;;
1799;SDS011;919;48.274;12.292;2023-11-18T14:42:57;3.00;;;1.80;;
1799;SDS011;919;48.274;12.292;2023-11-18T14:45:24;1.80;;;1.70;;
1799;SDS011;919;48.274;12.292;2023-11-18T14:47:51;6.70;;;2.43;;
1799;SDS011;919;48.274;12.292;2023-11-18T14:50:19;3.20;;;2.00;;
1799;SDS011;919;48.274;12.292;2023-11-18T14:52:46;3.20;;;1.90;;
1799;SDS011;919;48.274;12.292;2023-11-18T14:55:16;1.53;;;1.43;;
1799;SDS011;919;48.274;12.292;2023-11-18T14:57:44;1.80;;;1.70;;
1799;SDS011;919;48.274;12.292;2023-11-18T15:00:12;1.37;;;1.27;;
1799;SDS011;919;48.274;12.292;2023-11-18T15:02:47;2.03;;;1.80;;
1799;SDS011;919;48.274;12.292;2023-11-18T15:05:15;1.97;;;1.77;;
1799;SDS011;919;48.274;12.292;2023-11-18T15:07:44;1.47;;;1.37;;
1799;SDS011;919;48.274;12.292;2023-11-18T15:10:12;1.60;;;1.50;;
1799;SDS011;919;48.274;12.292;2023-11-18T15:12:46;2.37;;;1.93;;
1799;SDS011;919;48.274;12.292;2023-11-18T15:15:13;1.87;;;1.73;;
1799;SDS011;919;48.274;12.292;2023-11-18T15:17:46;4.37;;;2.67;;
1799;SDS011;919;48.274;12.292;2023-11-18T15:20:14;3.53;;;2.80;;
1799;SDS011;919;48.274;12.292;2023-11-18T15:22:43;2.47;;;2.17;;
1799;SDS011;919;48.274;12.292;2023-11-18T15:25:10;2.77;;;2.00;;
1799;SDS011;919;48.274;12.292;2023-11-18T15:27:38;2.60;;;1.80;;
1799;SDS011;919;48.274;12.292;2023-11-18T15:30:08;1.80;;;1.70;;